Lill Grethe — LG3433 — position and weather

sailwx.info

Track history (hours):
 
Tides and Currents Weather Stations Pressure Air Temp Water Temp Dewpoint Dewpoint Depression Visibility Wind Speed Wind Dir Waves Ship Positions

Lill Grethe

Last reported at 2015-Apr-19 07:19 UTC. Time now 2015-May-03 10:50 UTC.
Position N 67°07' E 014°00'.
Warning: this ship's position is 14 days out of date.

Length 10 m.

Type: Fishing. MMSI: 257005610.

Date/timePositionNaut miles runAvg speedWind from/ knotsBaromVisibWave heightAir tempDewpointWater temp
2015-Apr-19 07:19N 67°07' E 014°00'5 6.7
2015-Apr-19 06:31N 67°12' E 014°08'7 6.9
2015-Apr-19 05:33N 67°17' E 014°20'1 0.8
2015-Apr-19 04:32N 67°17' E 014°22'0 0.0
2015-Apr-19 03:32N 67°17' E 014°22'0 0.0
2015-Apr-19 02:32N 67°17' E 014°22'0 0.0
2015-Apr-19 01:28N 67°17' E 014°22'0 0.0
2015-Apr-19 00:31N 67°17' E 014°22'0 0.0
2015-Apr-18 23:31N 67°17' E 014°22'0 0.0
2015-Apr-18 22:33N 67°17' E 014°22'0 0.0
2015-Apr-18 21:33N 67°17' E 014°22'0 0.0
2015-Apr-18 20:33N 67°17' E 014°22'0 0.0
2015-Apr-18 19:33N 67°17' E 014°22'0 0.0
2015-Apr-18 18:33N 67°17' E 014°22'3 2.9
2015-Apr-18 17:33N 67°20' E 014°25'7 7.2
2015-Apr-18 16:33N 67°26' E 014°33'9 7.3
2015-Apr-18 15:15N 67°35' E 014°43'  
2015-Apr-14 08:28N 69°38' E 018°56'110 4.1
2015-Apr-13 06:03N 70°41' E 023°20'3 6.7
2015-Apr-13 05:33N 70°43' E 023°27'  
Track history (hours):
 
Tides and Currents Weather Stations Pressure Air Temp Water Temp Dewpoint Dewpoint Depression Visibility Wind Speed Wind Dir Waves Ship Positions

Lill Grethe

Last reported at 2015-Apr-19 07:19 UTC. Time now 2015-May-03 10:50 UTC.
Position N 67°07' E 014°00'.
Warning: this ship's position is 14 days out of date.

Length 10 m.

Type: Fishing. MMSI: 257005610.

Date/timePositionNaut miles runAvg speedWind from/ knotsBaromVisibWave heightAir tempDewpointWater temp
2015-Apr-19 07:19N 67°07' E 014°00'5 6.7
2015-Apr-19 06:31N 67°12' E 014°08'7 6.9
2015-Apr-19 05:33N 67°17' E 014°20'1 0.8
2015-Apr-19 04:32N 67°17' E 014°22'0 0.0
2015-Apr-19 03:32N 67°17' E 014°22'0 0.0
2015-Apr-19 02:32N 67°17' E 014°22'0 0.0
2015-Apr-19 01:28N 67°17' E 014°22'0 0.0
2015-Apr-19 00:31N 67°17' E 014°22'0 0.0
2015-Apr-18 23:31N 67°17' E 014°22'0 0.0
2015-Apr-18 22:33N 67°17' E 014°22'0 0.0
2015-Apr-18 21:33N 67°17' E 014°22'0 0.0
2015-Apr-18 20:33N 67°17' E 014°22'0 0.0
2015-Apr-18 19:33N 67°17' E 014°22'0 0.0
2015-Apr-18 18:33N 67°17' E 014°22'3 2.9
2015-Apr-18 17:33N 67°20' E 014°25'7 7.2
2015-Apr-18 16:33N 67°26' E 014°33'9 7.3
2015-Apr-18 15:15N 67°35' E 014°43'  
2015-Apr-14 08:28N 69°38' E 018°56'110 4.1
2015-Apr-13 06:03N 70°41' E 023°20'3 6.7
2015-Apr-13 05:33N 70°43' E 023°27'  

Dump ship's entire track history